createdAt,value
2023-05-05T00:00:00.026Z,9.03
2023-05-05T00:00:31.166Z,9.03
2023-05-05T00:01:03.992Z,9.14
2023-05-05T00:01:35.198Z,9.14
2023-05-05T00:02:07.964Z,8.93
2023-05-05T00:02:34.544Z,8.93
2023-05-05T00:02:55.187Z,9.14
2023-05-05T00:03:27.171Z,9.14
2023-05-05T00:03:59.300Z,9.14
2023-05-05T00:04:31.265Z,8.93
2023-05-05T00:05:03.162Z,9.09
2023-05-05T00:05:34.487Z,9.09
2023-05-05T00:05:51.000Z,9.09
2023-05-05T00:06:23.946Z,9.09
2023-05-05T00:06:41.204Z,9.09
2023-05-05T00:07:11.190Z,9.09
2023-05-05T00:07:36.029Z,9.09
2023-05-05T00:07:59.088Z,9.09
2023-05-05T00:08:31.969Z,9.09
2023-05-05T00:09:03.173Z,9.09
2023-05-05T00:09:36.083Z,9.09
2023-05-05T00:10:07.307Z,8.88
2023-05-05T00:10:34.498Z,9.09
2023-05-05T00:10:55.068Z,9.09
2023-05-05T00:11:27.163Z,9.09
2023-05-05T00:12:00.057Z,9.09
2023-05-05T00:12:31.119Z,8.88
2023-05-05T00:13:04.145Z,8.88
2023-05-05T00:13:34.476Z,8.88
2023-05-05T00:13:51.015Z,9.09
2023-05-05T00:14:23.169Z,8.88
2023-05-05T00:14:40.330Z,9.09
2023-05-05T00:15:11.992Z,9.09
2023-05-05T00:15:35.119Z,9.09
2023-05-05T00:15:59.075Z,9.09
2023-05-05T00:16:31.667Z,9.09
2023-05-05T00:17:03.141Z,8.88
2023-05-05T00:17:34.582Z,8.88
2023-05-05T00:17:52.225Z,8.88
2023-05-05T00:18:23.939Z,8.93
2023-05-05T00:18:41.210Z,8.93
2023-05-05T00:19:11.140Z,8.93
2023-05-05T00:19:35.095Z,9.14
2023-05-05T00:19:59.106Z,9.14
2023-05-05T00:20:31.926Z,8.93
2023-05-05T00:21:03.102Z,9.09
2023-05-05T00:21:38.534Z,9.09
2023-05-05T00:22:07.079Z,9.09
2023-05-05T00:22:34.498Z,8.88
2023-05-05T00:22:55.122Z,9.14
2023-05-05T00:23:27.118Z,8.93
2023-05-05T00:24:01.646Z,8.82
2023-05-05T00:24:31.077Z,8.82
2023-05-05T00:25:04.776Z,8.93
2023-05-05T00:25:34.949Z,8.93
2023-05-05T00:26:08.083Z,9.04
2023-05-05T00:26:34.721Z,9.04
2023-05-05T00:26:55.039Z,9.04
2023-05-05T00:27:27.206Z,8.81
2023-05-05T00:28:05.351Z,8.81
2023-05-05T00:28:16.028Z,9.04
2023-05-05T00:28:34.531Z,9.04
2023-05-05T00:29:03.091Z,9.04
2023-05-05T00:29:34.493Z,9.04
2023-05-05T00:29:51.129Z,9.04
2023-05-05T00:30:24.220Z,9.04
2023-05-05T00:30:41.352Z,9.04
2023-05-05T00:31:11.136Z,9.14
2023-05-05T00:31:34.605Z,9.14
2023-05-05T00:31:59.214Z,9.14
2023-05-05T00:32:32.274Z,8.92
2023-05-05T00:33:03.323Z,8.92
2023-05-05T00:33:35.495Z,8.92
2023-05-05T00:34:07.164Z,9.14
2023-05-05T00:34:34.651Z,9.14
2023-05-05T00:34:55.057Z,9.14
2023-05-05T00:35:27.142Z,9.14
2023-05-05T00:36:00.039Z,8.92
2023-05-05T00:36:31.026Z,8.92
2023-05-05T00:37:03.880Z,8.92
2023-05-05T00:37:34.539Z,8.92
2023-05-05T00:37:51.209Z,9.14
2023-05-05T00:38:23.091Z,9.14
2023-05-05T00:38:40.300Z,9.14
2023-05-05T00:39:12.167Z,8.97
2023-05-05T00:39:34.538Z,8.97
2023-05-05T00:39:59.064Z,8.97
2023-05-05T00:40:31.554Z,8.97
2023-05-05T00:41:03.158Z,9.19
2023-05-05T00:41:34.535Z,9.19
2023-05-05T00:41:51.031Z,9.19
2023-05-05T00:42:24.022Z,8.97
2023-05-05T00:42:41.376Z,8.97
2023-05-05T00:43:11.102Z,9.19
2023-05-05T00:43:35.335Z,9.19
2023-05-05T00:43:59.052Z,9.19
2023-05-05T00:44:32.081Z,9.19
2023-05-05T00:45:03.152Z,9.19
2023-05-05T00:45:35.316Z,9.19
2023-05-05T00:46:07.089Z,8.97
2023-05-05T00:46:34.552Z,9.19
2023-05-05T00:46:55.053Z,8.97
2023-05-05T00:47:27.192Z,9.19
2023-05-05T00:47:59.914Z,9.19
2023-05-05T00:48:31.164Z,9.19
2023-05-05T00:49:04.083Z,9.19
2023-05-05T00:49:34.641Z,9.19
2023-05-05T00:49:51.099Z,9.19
2023-05-05T00:50:23.050Z,9.19
2023-05-05T00:50:40.268Z,9.19
2023-05-05T00:51:11.959Z,9.40
2023-05-05T00:51:34.944Z,9.19
2023-05-05T00:51:59.086Z,9.19
2023-05-05T00:52:31.269Z,9.19
2023-05-05T00:53:03.168Z,9.19
2023-05-05T00:53:34.544Z,9.19
2023-05-05T00:53:51.093Z,9.19
2023-05-05T00:54:23.968Z,9.19
2023-05-05T00:54:41.196Z,9.19
2023-05-05T00:55:11.147Z,9.40
2023-05-05T00:55:34.588Z,9.40
2023-05-05T00:55:59.062Z,9.40
2023-05-05T00:56:31.855Z,9.40
2023-05-05T00:57:03.153Z,9.40
2023-05-05T00:57:35.543Z,9.62
2023-05-05T00:58:07.088Z,9.40
2023-05-05T00:58:34.529Z,9.40
2023-05-05T00:58:55.013Z,9.36
2023-05-05T00:59:27.178Z,9.36
2023-05-05T01:00:00.663Z,9.36
2023-05-05T01:00:31.074Z,9.36
2023-05-05T01:01:03.908Z,9.36
2023-05-05T01:01:35.282Z,9.36
2023-05-05T01:02:07.913Z,9.36
2023-05-05T01:02:34.590Z,9.36
2023-05-05T01:02:55.327Z,9.25
2023-05-05T01:03:27.168Z,9.25
2023-05-05T01:03:59.098Z,9.25
2023-05-05T01:04:31.083Z,9.46
2023-05-05T01:05:03.178Z,9.46
2023-05-05T01:05:34.499Z,9.46
2023-05-05T01:05:51.121Z,9.46
2023-05-05T01:06:23.941Z,9.46
2023-05-05T01:06:41.180Z,9.36
2023-05-05T01:07:12.278Z,9.36
2023-05-05T01:07:34.539Z,9.15
2023-05-05T01:07:59.026Z,9.15
2023-05-05T01:08:31.956Z,9.15
2023-05-05T01:09:03.114Z,9.25
2023-05-05T01:09:35.501Z,9.25
2023-05-05T01:10:18.755Z,9.46
2023-05-05T01:10:34.920Z,9.25
2023-05-05T01:10:55.064Z,9.25
2023-05-05T01:11:27.072Z,9.25
2023-05-05T01:11:59.020Z,9.25
2023-05-05T01:12:31.060Z,9.25
2023-05-05T01:13:04.020Z,9.25
2023-05-05T01:13:34.537Z,9.15
2023-05-05T01:13:51.064Z,9.15
2023-05-05T01:14:24.475Z,9.36
2023-05-05T01:14:40.282Z,9.15
2023-05-05T01:15:12.087Z,9.36
2023-05-05T01:15:34.519Z,9.36
2023-05-05T01:15:59.049Z,9.24
2023-05-05T01:16:31.149Z,9.24
2023-05-05T01:17:03.055Z,9.24
2023-05-05T01:17:34.557Z,9.24
2023-05-05T01:17:51.046Z,9.24
2023-05-05T01:18:23.949Z,9.14
2023-05-05T01:18:41.161Z,9.14
2023-05-05T01:19:11.052Z,9.35
2023-05-05T01:19:35.024Z,9.35
2023-05-05T01:19:59.009Z,9.30
2023-05-05T01:20:31.944Z,9.30
2023-05-05T01:21:03.080Z,9.30
2023-05-05T01:21:36.286Z,9.30
2023-05-05T01:22:07.052Z,9.20
2023-05-05T01:22:34.491Z,9.20
2023-05-05T01:22:55.036Z,9.20
2023-05-05T01:23:27.075Z,9.20
2023-05-05T01:23:59.990Z,9.20
2023-05-05T01:24:31.042Z,9.20
2023-05-05T01:25:03.920Z,9.20
2023-05-05T01:25:34.505Z,9.20
2023-05-05T01:25:51.146Z,9.20
2023-05-05T01:26:23.031Z,9.20
2023-05-05T01:26:40.211Z,9.20
2023-05-05T01:27:12.034Z,9.20
2023-05-05T01:27:34.585Z,9.20
2023-05-05T01:27:59.047Z,9.09
2023-05-05T01:28:31.069Z,9.09
2023-05-05T01:29:03.196Z,9.09
2023-05-05T01:29:34.534Z,9.09
2023-05-05T01:29:51.035Z,9.30
2023-05-05T01:30:23.983Z,9.30
2023-05-05T01:30:41.213Z,9.19
2023-05-05T01:31:11.072Z,9.40
2023-05-05T01:31:35.156Z,9.19
2023-05-05T01:31:59.064Z,9.19
2023-05-05T01:32:31.928Z,9.08
2023-05-05T01:33:03.006Z,9.08
2023-05-05T01:33:35.397Z,9.08
2023-05-05T01:34:07.006Z,9.08
2023-05-05T01:34:34.518Z,9.08
2023-05-05T01:34:54.972Z,9.04
2023-05-05T01:35:27.017Z,9.04
2023-05-05T01:36:00.048Z,9.25
2023-05-05T01:36:30.996Z,9.25
2023-05-05T01:37:03.966Z,9.25
2023-05-05T01:37:34.886Z,9.25
2023-05-05T01:38:07.966Z,9.25
2023-05-05T01:38:34.911Z,9.25
2023-05-05T01:38:54.994Z,9.25
2023-05-05T01:39:27.179Z,9.14
2023-05-05T01:39:59.052Z,9.14
2023-05-05T01:40:30.931Z,9.34
2023-05-05T01:41:03.102Z,9.34
2023-05-05T01:41:34.557Z,9.34
2023-05-05T01:41:51.008Z,9.23
2023-05-05T01:42:23.908Z,9.23
2023-05-05T01:42:41.116Z,9.12
2023-05-05T01:43:11.012Z,9.12
2023-05-05T01:43:34.500Z,9.12
2023-05-05T01:43:59.083Z,9.12
2023-05-05T01:44:32.002Z,9.12
2023-05-05T01:45:03.281Z,9.12
2023-05-05T01:45:36.609Z,9.12
2023-05-05T01:46:07.067Z,9.01
2023-05-05T01:46:34.528Z,9.01
2023-05-05T01:46:54.966Z,9.01
2023-05-05T01:47:27.085Z,9.01
2023-05-05T01:47:59.926Z,9.01
2023-05-05T01:48:31.017Z,9.01
2023-05-05T01:49:03.914Z,9.01
2023-05-05T01:49:34.486Z,9.01
2023-05-05T01:49:51.053Z,9.21
2023-05-05T01:50:23.000Z,9.21
2023-05-05T01:50:40.203Z,9.16
2023-05-05T01:51:11.868Z,9.16
2023-05-05T01:51:34.507Z,9.16
2023-05-05T01:51:58.982Z,9.16
2023-05-05T01:52:31.060Z,9.16
2023-05-05T01:53:02.983Z,9.16
2023-05-05T01:53:34.523Z,9.16
2023-05-05T01:53:51.071Z,9.16
2023-05-05T01:54:24.001Z,9.16
2023-05-05T01:54:41.290Z,9.16
2023-05-05T01:55:10.966Z,9.16
2023-05-05T01:55:34.530Z,9.16
2023-05-05T01:55:58.974Z,9.16
2023-05-05T01:56:32.733Z,9.16
2023-05-05T01:57:03.060Z,9.16
2023-05-05T01:57:35.424Z,9.16
2023-05-05T01:58:07.210Z,9.16
2023-05-05T01:58:36.268Z,9.16
2023-05-05T01:58:55.035Z,9.16
2023-05-05T01:59:26.995Z,9.27
2023-05-05T01:59:59.882Z,9.27
2023-05-05T02:00:31.025Z,9.27
2023-05-05T02:01:03.966Z,9.27
2023-05-05T02:01:34.540Z,9.27
2023-05-05T02:01:51.043Z,9.27
2023-05-05T02:02:23.101Z,9.27
2023-05-05T02:02:40.224Z,9.27
2023-05-05T02:03:11.876Z,9.27
2023-05-05T02:03:34.524Z,9.27
2023-05-05T02:03:58.993Z,9.27
2023-05-05T02:04:31.008Z,9.27
2023-05-05T02:05:03.047Z,9.27
2023-05-05T02:05:34.990Z,9.27
2023-05-05T02:06:06.974Z,9.36
2023-05-05T02:06:34.572Z,9.36
2023-05-05T02:06:55.013Z,9.36
2023-05-05T02:07:27.920Z,9.36
2023-05-05T02:07:59.030Z,9.36
2023-05-05T02:08:31.813Z,9.36
2023-05-05T02:09:02.954Z,9.16
2023-05-05T02:09:36.002Z,9.46
2023-05-05T02:10:07.206Z,9.46
2023-05-05T02:10:34.591Z,9.46
2023-05-05T02:10:56.698Z,9.46
2023-05-05T02:11:27.092Z,9.37
2023-05-05T02:11:58.972Z,9.37
2023-05-05T02:12:30.981Z,9.37
2023-05-05T02:13:04.086Z,9.57
2023-05-05T02:13:34.618Z,9.57
2023-05-05T02:13:51.098Z,9.57
2023-05-05T02:14:23.020Z,9.57
2023-05-05T02:14:40.181Z,9.57
2023-05-05T02:15:11.877Z,9.57
2023-05-05T02:15:34.542Z,9.57
2023-05-05T02:15:59.010Z,9.57
2023-05-05T02:16:31.005Z,9.57
2023-05-05T02:17:03.092Z,9.37
2023-05-05T02:17:34.577Z,9.57
2023-05-05T02:17:51.045Z,9.57
2023-05-05T02:18:23.861Z,9.57
2023-05-05T02:18:41.158Z,9.57
2023-05-05T02:19:11.090Z,9.57
2023-05-05T02:19:34.548Z,9.57
2023-05-05T02:19:58.933Z,9.57
2023-05-05T02:20:31.852Z,9.62
2023-05-05T02:21:03.016Z,9.62
2023-05-05T02:21:36.549Z,9.42
2023-05-05T02:22:06.950Z,9.42
2023-05-05T02:22:34.545Z,9.62
2023-05-05T02:22:55.004Z,9.62
2023-05-05T02:23:26.934Z,9.62
2023-05-05T02:23:59.894Z,9.62
2023-05-05T02:24:31.067Z,9.62
2023-05-05T02:25:03.891Z,9.57
2023-05-05T02:25:34.553Z,9.57
2023-05-05T02:25:51.060Z,9.57
2023-05-05T02:26:22.982Z,9.57
2023-05-05T02:26:40.241Z,9.57
2023-05-05T02:27:12.002Z,9.57
2023-05-05T02:27:34.593Z,9.57
2023-05-05T02:27:58.957Z,9.57
2023-05-05T02:28:30.964Z,9.77
2023-05-05T02:29:02.996Z,9.77
2023-05-05T02:29:34.593Z,9.77
2023-05-05T02:29:51.035Z,9.77
2023-05-05T02:30:23.920Z,9.77
2023-05-05T02:30:41.093Z,9.77
2023-05-05T02:31:10.988Z,9.77
2023-05-05T02:31:34.555Z,9.77
2023-05-05T02:31:58.954Z,9.77
2023-05-05T02:32:31.943Z,9.66
2023-05-05T02:33:03.145Z,9.66
2023-05-05T02:33:39.750Z,9.77
2023-05-05T02:34:06.995Z,9.66
2023-05-05T02:34:34.678Z,9.66
2023-05-05T02:34:54.970Z,9.66
2023-05-05T02:35:27.158Z,9.66
2023-05-05T02:35:59.737Z,9.85
2023-05-05T02:36:31.041Z,9.74
2023-05-05T02:37:03.736Z,9.74
2023-05-05T02:37:34.778Z,9.74
2023-05-05T02:37:51.025Z,9.74
2023-05-05T02:38:22.959Z,9.74
2023-05-05T02:38:41.112Z,9.74
2023-05-05T02:39:19.266Z,9.74
2023-05-05T02:39:28.501Z,9.74
2023-05-05T02:39:59.218Z,9.74
2023-05-05T02:40:31.730Z,9.74
2023-05-05T02:41:03.054Z,9.74
2023-05-05T02:41:36.408Z,9.74
2023-05-05T02:42:06.919Z,9.74
2023-05-05T02:42:34.714Z,9.74
2023-05-05T02:42:55.233Z,9.74
2023-05-05T02:43:27.248Z,9.74
2023-05-05T02:43:59.993Z,9.62
2023-05-05T02:44:30.934Z,9.82
2023-05-05T02:45:03.844Z,9.82
2023-05-05T02:45:34.679Z,9.82
2023-05-05T02:45:51.039Z,9.82
2023-05-05T02:46:22.973Z,9.82
2023-05-05T02:46:40.253Z,9.82
2023-05-05T02:47:11.834Z,9.82
2023-05-05T02:47:34.577Z,9.82
2023-05-05T02:47:58.954Z,9.82
2023-05-05T02:48:30.930Z,9.82
2023-05-05T02:49:03.147Z,9.71
2023-05-05T02:49:34.536Z,9.71
2023-05-05T02:50:07.264Z,9.71
2023-05-05T02:50:34.551Z,9.71
2023-05-05T02:50:55.162Z,9.71
2023-05-05T02:51:27.910Z,9.66
2023-05-05T02:52:00.444Z,9.85
2023-05-05T02:52:31.883Z,9.85
2023-05-05T02:53:03.335Z,9.74
2023-05-05T02:53:35.900Z,9.93
2023-05-05T02:54:07.099Z,9.93
2023-05-05T02:54:34.623Z,9.93
2023-05-05T02:54:54.917Z,9.93
2023-05-05T02:55:27.124Z,9.82
2023-05-05T02:55:59.831Z,9.82
2023-05-05T02:56:30.920Z,9.70
2023-05-05T02:57:03.877Z,9.70
2023-05-05T02:57:34.560Z,9.89
2023-05-05T02:57:51.175Z,9.78
2023-05-05T02:58:22.977Z,9.78
2023-05-05T02:58:40.138Z,9.78
2023-05-05T02:59:13.399Z,9.73
2023-05-05T02:59:34.578Z,9.73
2023-05-05T02:59:59.056Z,9.73
2023-05-05T03:00:31.031Z,9.73
2023-05-05T03:01:03.185Z,9.73
2023-05-05T03:01:35.195Z,9.73
2023-05-05T03:02:07.106Z,9.73
2023-05-05T03:02:34.669Z,9.73
2023-05-05T03:02:55.088Z,9.78
2023-05-05T03:03:27.872Z,9.78
2023-05-05T03:03:59.031Z,9.78
2023-05-05T03:04:31.961Z,9.78
2023-05-05T03:05:03.201Z,9.78
2023-05-05T03:05:36.319Z,9.78
2023-05-05T03:06:06.942Z,9.78
2023-05-05T03:06:34.590Z,9.78
2023-05-05T03:06:54.971Z,9.78
2023-05-05T03:07:27.269Z,9.60
2023-05-05T03:07:59.887Z,9.60
2023-05-05T03:08:31.106Z,9.70
2023-05-05T03:09:03.925Z,9.70
2023-05-05T03:09:34.595Z,9.70
2023-05-05T03:10:08.280Z,9.93
2023-05-05T03:10:35.241Z,9.93
2023-05-05T03:10:54.867Z,9.93
2023-05-05T03:11:27.004Z,9.93
2023-05-05T03:11:58.942Z,9.93
2023-05-05T03:12:30.949Z,9.93
2023-05-05T03:13:03.825Z,10.03
2023-05-05T03:13:35.318Z,10.03
2023-05-05T03:14:07.886Z,10.03
2023-05-05T03:14:34.609Z,10.03
2023-05-05T03:14:55.016Z,10.03
2023-05-05T03:15:27.226Z,9.85
2023-05-05T03:15:59.102Z,9.85
2023-05-05T03:16:30.983Z,9.85
2023-05-05T03:17:03.146Z,9.90
2023-05-05T03:17:35.240Z,9.90
2023-05-05T03:18:07.064Z,9.90
2023-05-05T03:18:35.505Z,9.90
2023-05-05T03:18:54.892Z,9.90
2023-05-05T03:19:27.943Z,9.90
2023-05-05T03:20:00.136Z,9.90
2023-05-05T03:20:31.682Z,9.90
2023-05-05T03:21:03.029Z,9.90
2023-05-05T03:21:36.316Z,9.90
2023-05-05T03:22:06.929Z,9.90
2023-05-05T03:22:34.645Z,9.90
2023-05-05T03:22:54.860Z,9.90
2023-05-05T03:23:27.077Z,9.90
2023-05-05T03:23:59.920Z,9.90
2023-05-05T03:24:30.924Z,9.90
2023-05-05T03:25:03.938Z,9.90
2023-05-05T03:25:34.577Z,9.90
2023-05-05T03:26:07.970Z,9.90
2023-05-05T03:26:34.534Z,9.90
2023-05-05T03:26:54.961Z,9.90
2023-05-05T03:27:27.065Z,9.90
2023-05-05T03:27:58.924Z,9.90
2023-05-05T03:28:30.870Z,9.90
2023-05-05T03:29:03.189Z,10.08
2023-05-05T03:29:34.609Z,10.03
2023-05-05T03:30:08.170Z,10.03
2023-05-05T03:30:34.628Z,10.03
2023-05-05T03:30:54.927Z,10.03
2023-05-05T03:31:27.919Z,10.03
2023-05-05T03:31:59.130Z,10.03
2023-05-05T03:32:31.904Z,10.03
2023-05-05T03:33:03.199Z,10.03
2023-05-05T03:33:35.488Z,10.03
2023-05-05T03:34:08.976Z,10.03
2023-05-05T03:34:35.269Z,10.03
2023-05-05T03:34:54.919Z,10.03
2023-05-05T03:35:27.058Z,10.03
2023-05-05T03:35:59.842Z,10.03
2023-05-05T03:36:30.875Z,10.08
2023-05-05T03:37:03.804Z,10.08
2023-05-05T03:37:35.046Z,10.08
2023-05-05T03:38:07.868Z,10.08
2023-05-05T03:38:34.506Z,10.08
2023-05-05T03:38:54.908Z,10.08
2023-05-05T03:39:27.191Z,10.08
2023-05-05T03:39:59.005Z,10.03
2023-05-05T03:40:42.993Z,10.03
2023-05-05T03:41:03.041Z,10.03
2023-05-05T03:41:34.583Z,10.03
2023-05-05T03:42:06.931Z,10.03
2023-05-05T03:42:34.599Z,10.03
2023-05-05T03:42:54.873Z,10.03
2023-05-05T03:43:27.779Z,10.03
2023-05-05T03:43:58.893Z,10.11
2023-05-05T03:44:31.810Z,10.11
2023-05-05T03:45:03.188Z,10.11
2023-05-05T03:45:36.015Z,10.11
2023-05-05T03:46:06.926Z,10.11
2023-05-05T03:46:34.584Z,10.11
2023-05-05T03:46:54.920Z,10.11
2023-05-05T03:47:27.166Z,10.11
2023-05-05T03:47:59.850Z,10.11
2023-05-05T03:48:31.761Z,10.00
2023-05-05T03:49:03.941Z,10.00
2023-05-05T03:49:34.633Z,10.00
2023-05-05T03:50:08.113Z,10.00
2023-05-05T03:50:35.758Z,10.00
2023-05-05T03:50:54.907Z,10.00
2023-05-05T03:51:27.109Z,10.00
2023-05-05T03:51:58.907Z,10.00
2023-05-05T03:52:30.831Z,10.00
2023-05-05T03:53:03.076Z,9.89
2023-05-05T03:53:35.059Z,9.89
2023-05-05T03:54:06.898Z,9.89
2023-05-05T03:54:34.594Z,9.89
2023-05-05T03:54:54.915Z,9.89
2023-05-05T03:55:27.896Z,9.89
2023-05-05T03:55:58.901Z,10.06
2023-05-05T03:56:31.866Z,10.06
2023-05-05T03:57:10.022Z,10.06
2023-05-05T03:57:18.908Z,10.06
2023-05-05T03:57:51.174Z,10.06
2023-05-05T03:58:23.004Z,10.06
2023-05-05T03:58:41.249Z,10.06
2023-05-05T03:59:10.950Z,10.06
2023-05-05T03:59:35.109Z,10.06
2023-05-05T03:59:58.945Z,10.06
2023-05-05T04:00:30.900Z,10.06
2023-05-05T04:01:03.808Z,10.06
2023-05-05T04:01:34.571Z,10.06
2023-05-05T04:02:07.863Z,9.95
2023-05-05T04:02:35.231Z,9.95
2023-05-05T04:02:56.048Z,9.95
2023-05-05T04:03:27.343Z,9.95
2023-05-05T04:03:58.987Z,9.95
2023-05-05T04:04:30.897Z,9.95
2023-05-05T04:05:03.160Z,9.95
2023-05-05T04:05:34.773Z,9.95
2023-05-05T04:06:06.978Z,9.95
2023-05-05T04:06:34.578Z,9.95
2023-05-05T04:06:54.915Z,9.90
2023-05-05T04:07:27.895Z,9.90
2023-05-05T04:07:58.917Z,10.09
2023-05-05T04:08:35.551Z,10.09
2023-05-05T04:09:03.150Z,10.09
2023-05-05T04:09:34.649Z,10.09
2023-05-05T04:10:07.769Z,10.09
2023-05-05T04:10:34.732Z,10.09
2023-05-05T04:10:55.683Z,10.09
2023-05-05T04:11:27.224Z,10.09
2023-05-05T04:11:58.951Z,10.09
2023-05-05T04:12:30.989Z,10.09
2023-05-05T04:13:03.855Z,10.09
2023-05-05T04:13:34.776Z,10.09
2023-05-05T04:14:07.768Z,10.09
2023-05-05T04:14:34.812Z,10.09
2023-05-05T04:14:54.865Z,9.95
2023-05-05T04:15:33.030Z,9.95
2023-05-05T04:15:35.320Z,10.13
2023-05-05T04:15:59.020Z,9.95
2023-05-05T04:16:30.931Z,10.13
2023-05-05T04:17:03.293Z,10.13
2023-05-05T04:17:35.280Z,10.13
2023-05-05T04:18:06.949Z,10.13
2023-05-05T04:18:34.762Z,10.13
2023-05-05T04:18:54.938Z,10.09
2023-05-05T04:19:27.923Z,10.09
2023-05-05T04:19:58.919Z,10.09
2023-05-05T04:20:31.757Z,10.09
2023-05-05T04:21:03.388Z,10.09
2023-05-05T04:21:35.873Z,10.09
2023-05-05T04:22:06.857Z,10.09
2023-05-05T04:22:34.686Z,10.09
2023-05-05T04:22:54.953Z,10.09
2023-05-05T04:23:28.155Z,10.09
2023-05-05T04:23:59.921Z,10.09
2023-05-05T04:24:30.838Z,9.98
2023-05-05T04:25:03.936Z,9.98
2023-05-05T04:25:35.207Z,9.98
2023-05-05T04:26:07.806Z,10.16
2023-05-05T04:26:34.638Z,10.16
2023-05-05T04:26:54.885Z,10.05
2023-05-05T04:27:27.387Z,10.05
2023-05-05T04:27:58.854Z,10.05
2023-05-05T04:28:30.949Z,10.05
2023-05-05T04:29:03.286Z,10.05
2023-05-05T04:29:34.553Z,10.05
2023-05-05T04:30:07.193Z,10.05
2023-05-05T04:30:34.628Z,10.05
2023-05-05T04:30:54.943Z,10.05
2023-05-05T04:31:27.802Z,10.05
2023-05-05T04:31:58.851Z,10.05
2023-05-05T04:32:31.853Z,10.16
2023-05-05T04:33:03.379Z,10.16
2023-05-05T04:33:36.622Z,10.16
2023-05-05T04:34:06.894Z,10.16
2023-05-05T04:34:34.578Z,10.05
2023-05-05T04:34:54.888Z,10.05
2023-05-05T04:35:27.330Z,10.05
2023-05-05T04:35:59.886Z,10.23
2023-05-05T04:36:30.812Z,10.23
2023-05-05T04:37:03.931Z,10.23
2023-05-05T04:37:34.561Z,10.23
2023-05-05T04:38:12.699Z,10.23
2023-05-05T04:38:23.869Z,10.23
2023-05-05T04:38:41.067Z,10.23
2023-05-05T04:39:10.917Z,10.05
2023-05-05T04:39:34.606Z,10.05
2023-05-05T04:39:58.905Z,10.16
2023-05-05T04:40:31.796Z,10.16
2023-05-05T04:41:03.321Z,10.27
2023-05-05T04:41:36.478Z,10.27
2023-05-05T04:42:14.620Z,10.27
2023-05-05T04:42:23.048Z,10.27
2023-05-05T04:42:41.219Z,10.27
2023-05-05T04:43:10.901Z,10.27
2023-05-05T04:43:35.247Z,10.27
2023-05-05T04:44:00.354Z,10.27
2023-05-05T04:44:30.894Z,10.32
2023-05-05T04:45:04.220Z,10.32
2023-05-05T04:45:35.030Z,10.32
2023-05-05T04:46:07.929Z,10.32
2023-05-05T04:46:34.690Z,10.32
2023-05-05T04:46:54.899Z,10.13
2023-05-05T04:47:27.471Z,10.13
2023-05-05T04:47:58.875Z,10.13
2023-05-05T04:48:30.921Z,10.24
2023-05-05T04:49:03.297Z,10.24
2023-05-05T04:49:34.576Z,10.24
2023-05-05T04:50:07.129Z,10.24
2023-05-05T04:50:34.598Z,10.24
2023-05-05T04:50:54.916Z,10.24
2023-05-05T04:51:27.690Z,10.24
2023-05-05T04:51:58.873Z,10.24
2023-05-05T04:52:31.806Z,10.36
2023-05-05T04:53:03.320Z,10.36
2023-05-05T04:53:35.960Z,10.36
2023-05-05T04:54:06.835Z,10.36
2023-05-05T04:54:34.638Z,10.47
2023-05-05T04:54:54.889Z,10.47
2023-05-05T04:55:27.265Z,10.28
2023-05-05T04:55:59.839Z,10.39
2023-05-05T04:56:30.792Z,10.39
2023-05-05T04:57:03.908Z,10.44
2023-05-05T04:57:34.978Z,10.44
2023-05-05T04:58:08.676Z,10.55
2023-05-05T04:58:34.883Z,10.55
2023-05-05T04:58:54.850Z,10.55
2023-05-05T04:59:27.249Z,10.66
2023-05-05T04:59:58.834Z,10.49
2023-05-05T05:00:30.983Z,10.49
2023-05-05T05:01:03.199Z,10.49
2023-05-05T05:01:36.920Z,10.49
2023-05-05T05:02:06.821Z,10.60
2023-05-05T05:02:35.033Z,10.71
2023-05-05T05:02:54.864Z,10.52
2023-05-05T05:03:27.877Z,10.52
2023-05-05T05:03:59.026Z,10.57
2023-05-05T05:04:35.565Z,10.68
2023-05-05T05:05:03.338Z,10.61
2023-05-05T05:05:34.956Z,10.61
2023-05-05T05:06:06.884Z,10.71
2023-05-05T05:06:35.116Z,10.82
2023-05-05T05:06:58.379Z,10.82
2023-05-05T05:07:27.228Z,10.82
2023-05-05T05:07:59.796Z,10.87
2023-05-05T05:08:30.852Z,10.79
2023-05-05T05:09:03.931Z,10.91
2023-05-05T05:09:35.132Z,10.91
2023-05-05T05:10:07.956Z,10.91
2023-05-05T05:10:34.610Z,10.82
2023-05-05T05:10:54.830Z,11.01
2023-05-05T05:11:27.263Z,10.82
2023-05-05T05:12:05.429Z,10.82
2023-05-05T05:12:15.212Z,10.92
2023-05-05T05:12:35.494Z,10.92
2023-05-05T05:13:03.896Z,10.92
2023-05-05T05:13:34.651Z,10.92
2023-05-05T05:14:07.835Z,10.92
2023-05-05T05:14:34.636Z,10.92
2023-05-05T05:14:54.829Z,10.92
2023-05-05T05:15:27.409Z,10.97
2023-05-05T05:15:58.883Z,10.97
2023-05-05T05:16:30.923Z,11.08
2023-05-05T05:17:03.404Z,11.08
2023-05-05T05:17:34.634Z,11.08
2023-05-05T05:18:12.798Z,11.08
2023-05-05T05:18:23.838Z,11.30
2023-05-05T05:18:40.942Z,11.30
2023-05-05T05:19:10.848Z,11.30
2023-05-05T05:19:35.005Z,11.11
2023-05-05T05:19:58.979Z,11.22
2023-05-05T05:20:31.719Z,11.27
2023-05-05T05:21:03.397Z,11.27
2023-05-05T05:21:36.395Z,11.27
2023-05-05T05:22:06.814Z,11.27
2023-05-05T05:22:35.073Z,11.27
2023-05-05T05:22:54.850Z,11.27
2023-05-05T05:23:27.268Z,11.22
2023-05-05T05:24:00.671Z,11.41
2023-05-05T05:24:30.831Z,11.22
2023-05-05T05:25:03.895Z,11.41
2023-05-05T05:25:34.998Z,11.41
2023-05-05T05:26:07.753Z,11.41
2023-05-05T05:26:34.889Z,11.22
2023-05-05T05:26:54.851Z,11.41
2023-05-05T05:27:27.354Z,11.30
2023-05-05T05:28:08.950Z,11.30
2023-05-05T05:28:31.675Z,11.30
2023-05-05T05:29:03.184Z,11.22
2023-05-05T05:29:35.966Z,11.22
2023-05-05T05:30:07.229Z,11.41
2023-05-05T05:30:34.645Z,11.41
2023-05-05T05:30:54.818Z,11.41
2023-05-05T05:31:27.353Z,11.41
2023-05-05T05:31:59.770Z,11.22
2023-05-05T05:32:30.860Z,11.22
2023-05-05T05:33:03.798Z,11.22
2023-05-05T05:33:34.998Z,11.22
2023-05-05T05:34:07.851Z,11.41
2023-05-05T05:34:34.627Z,11.46
2023-05-05T05:34:54.829Z,11.46
2023-05-05T05:35:27.347Z,11.46
2023-05-05T05:35:58.811Z,11.46
2023-05-05T05:36:30.819Z,11.46
2023-05-05T05:37:03.213Z,11.46
2023-05-05T05:37:34.994Z,11.46
2023-05-05T05:38:06.808Z,11.46
2023-05-05T05:38:34.743Z,11.46
2023-05-05T05:38:54.820Z,11.46
2023-05-05T05:39:29.157Z,11.46
2023-05-05T05:39:58.830Z,11.66
2023-05-05T05:40:31.672Z,11.46
2023-05-05T05:41:03.170Z,11.56
2023-05-05T05:41:35.451Z,11.56
2023-05-05T05:42:06.846Z,11.76
2023-05-05T05:42:34.675Z,11.76
2023-05-05T05:42:54.825Z,11.56
2023-05-05T05:43:27.253Z,11.56
2023-05-05T05:43:59.717Z,11.56
2023-05-05T05:44:30.786Z,11.56
2023-05-05T05:45:03.861Z,11.56
2023-05-05T05:45:34.621Z,11.56
2023-05-05T05:46:09.182Z,11.49
2023-05-05T05:46:34.926Z,11.49
2023-05-05T05:46:54.910Z,11.40
2023-05-05T05:47:27.309Z,11.50
2023-05-05T05:47:58.832Z,11.55
2023-05-05T05:48:30.869Z,11.66
2023-05-05T05:49:03.278Z,11.57
2023-05-05T05:49:34.841Z,11.57
2023-05-05T05:50:07.152Z,11.88
2023-05-05T05:50:35.249Z,11.68
2023-05-05T05:50:54.857Z,11.99
2023-05-05T05:51:27.775Z,11.83
2023-05-05T05:51:58.836Z,11.83
2023-05-05T05:52:31.700Z,11.94
2023-05-05T05:53:03.175Z,11.72
2023-05-05T05:53:36.559Z,11.72
2023-05-05T05:54:06.861Z,12.05
2023-05-05T05:54:34.656Z,11.64
2023-05-05T05:54:54.871Z,11.95
2023-05-05T05:55:27.104Z,11.95
2023-05-05T05:55:59.839Z,11.95
2023-05-05T05:56:30.864Z,12.16
2023-05-05T05:57:03.813Z,12.05
2023-05-05T05:57:35.083Z,12.05
2023-05-05T05:58:07.932Z,11.72
2023-05-05T05:58:34.693Z,11.94
2023-05-05T05:58:54.917Z,11.94
2023-05-05T05:59:27.131Z,11.83
2023-05-05T06:00:00.497Z,11.78
2023-05-05T06:00:30.927Z,11.78
2023-05-05T06:01:04.920Z,11.78
2023-05-05T06:01:34.713Z,11.68
2023-05-05T06:02:06.843Z,11.88
2023-05-05T06:02:34.726Z,11.88
2023-05-05T06:02:54.894Z,11.77
2023-05-05T06:03:27.812Z,11.77
2023-05-05T06:03:58.866Z,11.77
2023-05-05T06:04:31.866Z,11.77
2023-05-05T06:05:10.026Z,11.77
2023-05-05T06:05:18.816Z,11.77
2023-05-05T06:05:51.026Z,11.77
2023-05-05T06:06:22.839Z,11.97
2023-05-05T06:06:41.150Z,12.08
2023-05-05T06:07:10.716Z,12.08
2023-05-05T06:07:34.763Z,12.08
2023-05-05T06:07:58.881Z,12.08
2023-05-05T06:08:30.839Z,11.88
2023-05-05T06:09:03.820Z,11.88
2023-05-05T06:09:35.404Z,12.08
2023-05-05T06:10:22.563Z,11.88
2023-05-05T06:10:34.974Z,11.88
2023-05-05T06:10:55.018Z,11.88
2023-05-05T06:11:27.134Z,11.88
2023-05-05T06:11:58.781Z,11.88
2023-05-05T06:12:30.848Z,11.88
2023-05-05T06:13:03.751Z,11.88
2023-05-05T06:13:34.635Z,11.88
2023-05-05T06:14:07.672Z,11.88
2023-05-05T06:14:34.696Z,11.88
2023-05-05T06:14:54.839Z,12.08
2023-05-05T06:15:27.311Z,11.88
2023-05-05T06:15:58.859Z,11.88
2023-05-05T06:16:30.925Z,11.88
2023-05-05T06:17:03.225Z,11.88
2023-05-05T06:17:34.739Z,11.99